Time;durP1;ratioP1;P1;durP2;ratioP2;P2;SDS_P1;SDS_P2;PMS_P1;PMS_P2;Temp;Humidity;BMP_temperature;BMP_pressure;BME280_temperature;BME280_humidity;BME280_pressure;Samples;Min_cycle;Max_cycle;Signal;HPM_P1;HPM_P2
2021/10/05 00:01:15;;;;;;;27.35;12.43;;;;;;;7.66;80.82;101679.06;5031915;28;20064;-62
2021/10/05 00:03:40;;;;;;;23.13;13.15;;;;;;;7.65;80.94;101681.63;5022766;28;20033;-62
2021/10/05 00:06:06;;;;;;;26.77;12.95;;;;;;;7.60;81.49;101678.13;5032764;28;20039;-63
2021/10/05 00:08:32;;;;;;;33.22;13.00;;;;;;;7.58;81.22;101685.91;5032511;28;20037;-63
2021/10/05 00:10:57;;;;;;;28.15;13.07;;;;;;;7.56;81.54;101687.59;5043156;28;20065;-62
2021/10/05 00:13:23;;;;;;;26.83;13.00;;;;;;;7.50;82.07;101684.06;5044316;28;20049;-63
2021/10/05 00:15:49;;;;;;;24.85;13.10;;;;;;;7.49;82.15;101690.09;5034384;28;20542;-63
2021/10/05 00:18:15;;;;;;;27.17;13.73;;;;;;;7.39;81.83;101665.84;5036472;28;20077;-63
2021/10/05 00:20:41;;;;;;;23.77;13.73;;;;;;;7.43;82.24;101683.13;5031561;28;20103;-63
2021/10/05 00:23:07;;;;;;;31.13;14.25;;;;;;;7.33;82.40;101670.13;5032396;28;20629;-63
2021/10/05 00:25:33;;;;;;;26.38;13.85;;;;;;;7.39;82.74;101685.69;5031449;28;20051;-63
2021/10/05 00:27:59;;;;;;;24.52;13.52;;;;;;;7.28;83.02;101677.81;5031091;28;20044;-62
2021/10/05 00:30:24;;;;;;;34.53;13.98;;;;;;;7.35;82.94;101687.38;5014161;28;20045;-63
2021/10/05 00:32:50;;;;;;;29.45;13.68;;;;;;;7.28;83.37;101676.94;5033949;28;20045;-63
2021/10/05 00:35:16;;;;;;;27.30;13.15;;;;;;;7.23;83.28;101676.88;5050363;28;20036;-63
2021/10/05 00:37:42;;;;;;;23.50;13.55;;;;;;;7.25;83.63;101690.72;5031102;28;20149;-63
2021/10/05 00:40:09;;;;;;;28.00;13.70;;;;;;;7.23;83.69;101692.41;5028947;28;20136;-62
2021/10/05 00:42:35;;;;;;;28.38;14.10;;;;;;;7.22;83.61;101686.38;5032705;28;20148;-62
2021/10/05 00:45:01;;;;;;;32.30;14.85;;;;;;;7.19;84.02;101686.34;5031093;28;20037;-63
2021/10/05 00:47:26;;;;;;;31.15;14.00;;;;;;;7.19;83.98;101693.22;5031876;28;20053;-62
2021/10/05 00:49:52;;;;;;;29.17;13.57;;;;;;;6.98;84.04;101655.06;5031549;28;20041;-63
2021/10/05 00:52:18;;;;;;;24.63;13.52;;;;;;;7.14;84.33;101685.41;5031970;28;20041;-62
2021/10/05 00:54:45;;;;;;;26.55;13.15;;;;;;;7.12;84.50;101683.66;5030329;28;20052;-62
2021/10/05 00:57:11;;;;;;;27.00;13.48;;;;;;;6.97;84.53;101670.53;5031795;28;20049;-62
2021/10/05 00:59:37;;;;;;;23.35;12.18;;;;;;;7.07;84.58;101680.16;5009846;28;20037;-63
2021/10/05 01:02:09;;;;;;;26.20;13.48;;;;;;;7.05;84.79;101681.88;5020779;28;20050;-63
2021/10/05 01:04:35;;;;;;;23.95;12.55;;;;;;;7.00;84.89;101679.22;5030010;28;20051;-62
2021/10/05 01:07:07;;;;;;;23.70;12.23;;;;;;;6.99;84.94;101685.25;5033547;28;20037;-63
2021/10/05 01:09:34;;;;;;;26.70;12.70;;;;;;;6.91;85.13;101671.34;5048223;28;20520;-63
2021/10/05 01:12:00;;;;;;;23.83;12.27;;;;;;;6.96;84.90;101684.34;5044600;28;20504;-63
2021/10/05 01:14:25;;;;;;;22.50;11.48;;;;;;;6.95;85.43;101680.88;5033999;28;20045;-62
2021/10/05 01:16:54;;;;;;;23.83;12.50;;;;;;;6.94;85.02;101686.03;5029236;28;20044;-63
2021/10/05 01:19:20;;;;;;;25.13;12.23;;;;;;;6.93;85.54;101671.34;5048574;28;20513;-63
2021/10/05 01:21:46;;;;;;;24.75;11.98;;;;;;;6.92;85.47;101690.31;5038174;28;20086;-62
2021/10/05 01:24:17;;;;;;;21.70;11.50;;;;;;;6.92;85.69;101685.13;5030428;28;20037;-63
2021/10/05 01:26:43;;;;;;;28.20;11.57;;;;;;;6.90;85.56;101676.50;5030316;28;20041;-63
2021/10/05 01:29:13;;;;;;;21.90;11.35;;;;;;;6.77;85.62;101668.59;5046366;28;20558;-62
2021/10/05 01:31:43;;;;;;;24.10;11.32;;;;;;;6.88;85.43;101688.53;5040530;28;20044;-62
2021/10/05 01:34:08;;;;;;;;;;;;;;;6.85;85.82;101691.09;5050135;28;20044;-62
2021/10/05 01:36:35;;;;;;;22.85;10.77;;;;;;;6.71;85.93;101675.38;5063696;28;19939;-63
2021/10/05 01:39:06;;;;;;;21.08;11.15;;;;;;;6.80;85.87;101702.22;5050138;28;20128;-63
2021/10/05 01:41:32;;;;;;;18.92;10.70;;;;;;;6.70;85.70;101683.97;5024926;28;20541;-62
2021/10/05 01:43:57;;;;;;;22.20;11.57;;;;;;;6.88;85.58;101701.47;5011120;28;20120;-63
2021/10/05 01:46:23;;;;;;;23.13;11.63;;;;;;;6.95;85.07;101704.16;5045633;28;20068;-63
2021/10/05 01:48:49;;;;;;;21.00;10.95;;;;;;;6.90;84.73;101684.28;5047910;28;20044;-62
2021/10/05 01:51:14;;;;;;;25.42;11.38;;;;;;;7.00;84.78;101699.03;5034929;28;20088;-62
2021/10/05 01:53:40;;;;;;;23.70;10.88;;;;;;;6.98;84.89;101704.19;5027629;28;20119;-62
2021/10/05 01:56:07;;;;;;;19.92;10.57;;;;;;;6.94;84.69;101702.41;5037370;28;20080;-63
2021/10/05 01:58:34;;;;;;;22.00;11.77;;;;;;;6.92;84.70;101700.66;5028419;28;20091;-62
2021/10/05 02:01:00;;;;;;;21.20;11.20;;;;;;;6.91;84.80;101696.34;5026195;28;20046;-62
2021/10/05 02:03:26;;;;;;;19.40;10.57;;;;;;;6.91;84.65;101691.19;5028377;28;20039;-63
2021/10/05 02:05:52;;;;;;;24.58;12.25;;;;;;;6.95;84.40;101690.38;5029754;28;20148;-62
2021/10/05 02:08:18;;;;;;;21.83;10.50;;;;;;;6.96;84.38;101692.94;5029805;28;20564;-62
2021/10/05 02:10:44;;;;;;;22.15;11.20;;;;;;;7.01;84.42;101708.56;5028826;28;20140;-63
2021/10/05 02:13:11;;;;;;;22.63;11.00;;;;;;;7.12;84.03;101709.53;5041608;28;20037;-63
2021/10/05 02:15:37;;;;;;;23.98;10.48;;;;;;;7.01;84.02;101696.50;5048144;28;20557;-62
2021/10/05 02:18:03;;;;;;;24.25;12.13;;;;;;;7.07;83.67;101714.63;5024191;28;20073;-62
2021/10/05 02:20:29;;;;;;;21.70;11.30;;;;;;;6.85;84.16;101685.94;5034786;28;20442;-62
2021/10/05 02:22:55;;;;;;;23.80;12.02;;;;;;;6.83;84.18;101701.41;5035263;28;20040;-61
2021/10/05 02:25:21;;;;;;;22.25;11.90;;;;;;;6.86;84.03;101721.25;5046837;28;20053;-62
2021/10/05 02:27:46;;;;;;;24.60;12.90;;;;;;;6.79;84.31;101720.31;5020062;28;20033;-61
2021/10/05 02:30:13;;;;;;;28.75;12.13;;;;;;;6.72;84.42;101718.50;5012656;28;20463;-62
2021/10/05 02:32:39;;;;;;;23.27;11.70;;;;;;;6.56;84.54;101688.09;5029555;28;20048;-62
2021/10/05 02:35:05;;;;;;;27.67;12.95;;;;;;;6.51;84.72;101694.94;5039815;28;20040;-61
2021/10/05 02:37:32;;;;;;;23.55;11.98;;;;;;;6.68;84.81;101724.47;5049109;28;20047;-61
2021/10/05 02:39:59;;;;;;;26.90;11.82;;;;;;;6.46;84.87;101694.00;5045155;28;20045;-62
2021/10/05 02:42:26;;;;;;;22.23;10.68;;;;;;;6.57;85.16;101724.31;5028952;28;20045;-61
2021/10/05 02:44:53;;;;;;;23.42;10.98;;;;;;;6.53;84.96;101721.66;5028953;28;20087;-62
2021/10/05 02:47:19;;;;;;;24.17;10.88;;;;;;;6.47;85.05;101724.16;5044779;28;20431;-63
2021/10/05 02:49:45;;;;;;;19.77;10.32;;;;;;;6.39;84.95;101711.09;5043273;28;20069;-61
2021/10/05 02:52:17;;;;;;;23.60;11.88;;;;;;;6.42;85.17;101718.06;5030022;28;20065;-62
2021/10/05 02:54:46;;;;;;;25.00;11.25;;;;;;;6.41;85.60;101722.34;5016190;28;20057;-62
2021/10/05 02:57:13;;;;;;;;;;;;;;;6.38;85.36;101720.56;5050516;28;20047;-62
2021/10/05 02:59:38;;;;;;;21.38;9.93;;;;;;;6.37;85.46;101721.44;5037041;28;19989;-60
2021/10/05 03:02:04;;;;;;;23.27;10.77;;;;;;;6.36;85.36;101719.69;5049458;28;20044;-61
2021/10/05 03:04:30;;;;;;;26.60;11.57;;;;;;;6.36;85.47;101724.00;5035086;28;20107;-61
2021/10/05 03:06:55;;;;;;;25.23;11.98;;;;;;;6.33;85.35;101729.97;5031312;28;20037;-61
2021/10/05 03:09:21;;;;;;;22.98;10.55;;;;;;;6.30;85.70;101729.06;5014559;28;20045;-62
2021/10/05 03:11:47;;;;;;;39.30;11.70;;;;;;;6.29;86.15;101722.16;5014016;28;20084;-62
2021/10/05 03:14:12;;;;;;;32.00;12.18;;;;;;;6.26;86.46;101729.88;5024429;28;20505;-61
2021/10/05 03:16:38;;;;;;;32.00;10.95;;;;;;;6.26;86.22;101723.00;5032228;28;20041;-61
2021/10/05 03:19:04;;;;;;;52.63;13.57;;;;;;;6.25;86.50;101729.00;5017961;28;20096;-62
2021/10/05 03:21:30;;;;;;;24.05;11.15;;;;;;;6.23;86.56;101728.09;5031798;28;20044;-63
2021/10/05 03:23:55;;;;;;;23.13;11.35;;;;;;;6.14;86.52;101711.56;5031217;28;20041;-62
2021/10/05 03:26:21;;;;;;;45.95;13.05;;;;;;;6.24;86.37;101726.38;5050464;28;20113;-63
2021/10/05 03:28:47;;;;;;;26.30;11.43;;;;;;;6.22;86.50;101726.38;5052147;28;20133;-61
2021/10/05 03:31:15;;;;;;;26.73;11.95;;;;;;;6.23;86.72;101720.34;5041429;28;20033;-61
2021/10/05 03:33:42;;;;;;;26.00;12.05;;;;;;;6.21;86.28;101723.75;5035009;28;20037;-62
2021/10/05 03:36:08;;;;;;;28.50;11.82;;;;;;;6.20;86.77;101725.47;5050467;28;20550;-62
2021/10/05 03:38:33;;;;;;;22.35;10.45;;;;;;;6.19;86.36;101728.88;5051603;28;20127;-62
2021/10/05 03:40:59;;;;;;;26.50;12.32;;;;;;;6.14;86.58;101721.91;5039271;28;20184;-61
2021/10/05 03:43:25;;;;;;;25.90;12.80;;;;;;;6.10;86.39;101713.25;5042849;28;20069;-61
2021/10/05 03:45:52;;;;;;;28.55;11.77;;;;;;;6.21;86.22;101734.97;5034139;28;20049;-61
2021/10/05 03:48:18;;;;;;;22.10;10.77;;;;;;;6.21;86.52;101737.53;5063270;28;20053;-60
2021/10/05 03:50:44;;;;;;;29.70;12.48;;;;;;;6.22;86.52;101736.72;5032197;28;20083;-61
2021/10/05 03:53:15;;;;;;;24.42;12.23;;;;;;;6.23;86.84;101742.72;5031719;28;20529;-62
2021/10/05 03:55:44;;;;;;;35.20;12.18;;;;;;;6.25;86.51;101743.63;5032865;28;20477;-61
2021/10/05 03:58:09;;;;;;;28.27;12.25;;;;;;;6.34;86.27;101736.88;5031526;28;20041;-61
2021/10/05 04:00:35;;;;;;;31.50;12.90;;;;;;;6.45;85.65;101741.34;5029707;28;20056;-60
2021/10/05 04:03:01;;;;;;;25.23;11.25;;;;;;;6.41;85.78;101724.94;5019577;28;20124;-61
2021/10/05 04:05:26;;;;;;;26.45;12.93;;;;;;;6.56;84.99;101744.97;5034471;28;20041;-61
2021/10/05 04:07:52;;;;;;;26.52;12.15;;;;;;;6.55;85.02;101727.72;5051238;28;20092;-63
2021/10/05 04:10:18;;;;;;;26.42;11.98;;;;;;;6.72;84.56;101742.63;5037070;28;20045;-61
2021/10/05 04:12:44;;;;;;;27.20;12.32;;;;;;;6.78;84.32;101747.00;5031190;28;20045;-61
2021/10/05 04:15:09;;;;;;;26.58;12.35;;;;;;;6.87;83.88;101743.69;5031627;28;20060;-61
2021/10/05 04:17:35;;;;;;;27.52;11.73;;;;;;;7.00;83.99;101743.88;5045839;28;20040;-61
2021/10/05 04:20:01;;;;;;;23.92;12.02;;;;;;;7.12;83.27;101751.78;5037555;28;20508;-61
2021/10/05 04:22:28;;;;;;;21.83;11.32;;;;;;;7.17;83.27;101750.13;5033663;28;20562;-61
2021/10/05 04:24:53;;;;;;;31.63;11.43;;;;;;;7.22;82.75;101748.47;5031191;28;20181;-61
2021/10/05 04:27:19;;;;;;;25.45;11.98;;;;;;;7.37;82.38;101752.97;5031072;28;20042;-62
2021/10/05 04:29:45;;;;;;;26.27;11.27;;;;;;;7.45;81.94;101756.50;5022637;28;20560;-61
2021/10/05 04:32:11;;;;;;;23.02;11.75;;;;;;;7.50;81.42;101747.06;5026697;28;20183;-61
2021/10/05 04:34:37;;;;;;;24.10;11.68;;;;;;;7.57;80.71;101751.47;5031014;28;20037;-62
2021/10/05 04:37:05;;;;;;;24.85;12.57;;;;;;;7.59;80.59;101741.13;5032122;28;20049;-62
2021/10/05 04:39:31;;;;;;;25.73;10.35;;;;;;;7.67;80.39;101749.84;5030181;28;20098;-62
2021/10/05 04:41:57;;;;;;;22.17;10.35;;;;;;;7.73;80.04;101749.91;5022889;28;20491;-61
2021/10/05 04:44:22;;;;;;;21.98;10.50;;;;;;;7.82;79.49;101757.78;5047176;28;20469;-61
2021/10/05 04:46:49;;;;;;;21.90;10.52;;;;;;;7.90;79.22;101753.53;5047272;28;20068;-61
2021/10/05 04:49:14;;;;;;;23.77;11.27;;;;;;;7.93;78.83;101755.28;5047735;28;20045;-61
2021/10/05 04:51:40;;;;;;;26.52;11.68;;;;;;;7.98;78.72;101758.78;5029690;28;20054;-60
2021/10/05 04:54:06;;;;;;;25.42;9.85;;;;;;;7.97;78.56;101746.69;5028533;28;20046;-65
2021/10/05 04:56:32;;;;;;;22.35;10.65;;;;;;;8.13;78.03;101760.66;5028582;28;20052;-62
2021/10/05 04:58:58;;;;;;;25.73;10.35;;;;;;;8.17;77.51;101762.41;5032437;28;21368;-62
2021/10/05 05:01:24;;;;;;;20.38;9.98;;;;;;;8.16;77.36;101746.00;5026509;28;20064;-62
2021/10/05 05:03:50;;;;;;;25.45;10.05;;;;;;;8.34;77.13;101766.91;5028015;28;20108;-62
2021/10/05 05:06:15;;;;;;;22.42;10.10;;;;;;;8.40;76.86;101777.34;5029617;28;20045;-62
2021/10/05 05:08:41;;;;;;;20.23;9.75;;;;;;;8.45;76.43;101774.78;5028340;28;20485;-63
2021/10/05 05:11:07;;;;;;;22.38;10.23;;;;;;;8.52;76.37;101778.28;5036253;28;20131;-63
2021/10/05 05:13:32;;;;;;;16.73;9.30;;;;;;;8.59;75.86;101770.56;5002558;28;20506;-64
2021/10/05 05:15:58;;;;;;;20.95;9.40;;;;;;;8.61;75.29;101771.44;5027997;28;20128;-63
2021/10/05 05:18:24;;;;;;;24.08;10.20;;;;;;;8.73;75.03;101774.13;5027780;28;20053;-61
2021/10/05 05:20:49;;;;;;;21.10;9.57;;;;;;;8.80;75.30;101777.59;5026472;28;20045;-61
2021/10/05 05:23:15;;;;;;;19.50;9.57;;;;;;;8.86;74.85;101781.13;5035434;28;20402;-64
2021/10/05 05:25:41;;;;;;;21.10;9.30;;;;;;;8.92;74.79;101780.28;5029468;28;20045;-56
2021/10/05 05:28:08;;;;;;;19.20;8.90;;;;;;;9.00;74.26;101783.81;5021684;28;20517;-61
2021/10/05 05:30:35;;;;;;;17.67;9.45;;;;;;;9.02;73.76;101770.81;5022033;28;20037;-60
2021/10/05 05:33:01;;;;;;;18.88;9.48;;;;;;;9.14;73.49;101779.56;5028926;28;20468;-65
2021/10/05 05:35:27;;;;;;;19.15;9.05;;;;;;;9.18;73.41;101783.91;5027598;28;20037;-65
2021/10/05 05:37:53;;;;;;;21.08;9.60;;;;;;;9.22;72.84;101782.16;5029201;28;20373;-65
2021/10/05 05:40:18;;;;;;;21.65;9.40;;;;;;;9.25;72.23;101788.25;5029595;28;20045;-64
2021/10/05 05:42:44;;;;;;;26.05;9.73;;;;;;;9.15;72.86;101759.66;5028277;28;20047;-63
2021/10/05 05:45:11;;;;;;;23.65;12.00;;;;;;;9.34;72.22;101787.44;5029676;28;20061;-64
2021/10/05 05:47:37;;;;;;;23.83;9.85;;;;;;;9.39;72.24;101785.72;5021745;28;20111;-64
2021/10/05 05:50:04;;;;;;;21.67;10.88;;;;;;;9.50;72.00;101791.81;5030161;28;20029;-63
2021/10/05 05:52:32;;;;;;;18.52;9.10;;;;;;;9.65;72.01;101797.06;5027597;28;20977;-65
2021/10/05 05:54:58;;;;;;;17.83;9.63;;;;;;;9.68;71.37;101798.81;5046343;28;20044;-64
2021/10/05 05:57:24;;;;;;;18.40;9.07;;;;;;;9.77;71.31;101793.66;5019812;28;20057;-65
2021/10/05 05:59:50;;;;;;;20.83;9.75;;;;;;;9.85;70.84;101798.84;5017489;28;20087;-68
2021/10/05 06:02:16;;;;;;;14.98;8.75;;;;;;;9.83;70.41;101783.28;5027502;28;20046;-68
2021/10/05 06:04:41;;;;;;;18.35;9.45;;;;;;;9.93;70.34;101795.41;5019089;28;20048;-65
2021/10/05 06:07:07;;;;;;;20.45;9.23;;;;;;;9.95;70.29;101788.47;5029698;28;20045;-68
2021/10/05 06:09:34;;;;;;;16.80;9.05;;;;;;;10.00;69.91;101791.06;5020248;28;20132;-69
2021/10/05 06:12:03;;;;;;;18.48;9.00;;;;;;;10.07;70.12;101798.03;5027193;28;20037;-70
2021/10/05 06:14:29;;;;;;;20.15;9.95;;;;;;;10.17;69.67;101798.06;5026518;28;20064;-67
2021/10/05 06:17:01;;;;;;;20.73;9.35;;;;;;;10.32;69.44;101791.16;5015062;28;20512;-53
2021/10/05 06:19:27;;;;;;;18.10;9.38;;;;;;;10.46;68.90;101797.25;5025417;28;20045;-69
2021/10/05 06:21:53;;;;;;;18.20;9.27;;;;;;;10.55;69.06;101790.28;5027072;28;20033;-61
2021/10/05 06:24:18;;;;;;;25.90;9.48;;;;;;;10.65;68.42;101796.34;5015125;28;20037;-59
2021/10/05 06:26:45;;;;;;;19.63;9.70;;;;;;;10.75;67.56;101802.41;5023426;28;20052;-67
2021/10/05 06:29:11;;;;;;;15.20;9.45;;;;;;;10.85;68.02;101801.53;5023612;28;20538;-67
2021/10/05 06:31:37;;;;;;;19.20;9.40;;;;;;;10.93;67.53;101792.00;5032354;28;20045;-65
2021/10/05 06:34:03;;;;;;;23.90;9.15;;;;;;;11.05;67.24;101781.53;5024359;28;20481;-67
2021/10/05 06:36:28;;;;;;;18.65;9.15;;;;;;;11.25;67.24;101795.34;5012928;28;20045;-68
2021/10/05 06:38:54;;;;;;;18.70;8.75;;;;;;;11.31;66.61;101790.13;5012597;28;20044;-68
2021/10/05 06:41:21;;;;;;;21.92;9.13;;;;;;;11.47;66.43;101796.13;5020974;28;20523;-67
2021/10/05 06:43:47;;;;;;;17.85;10.75;;;;;;;11.62;65.66;101805.66;5015090;28;20128;-72
2021/10/05 06:46:13;;;;;;;22.48;11.00;;;;;;;11.65;65.48;101806.47;5012739;28;20862;-68
2021/10/05 06:48:39;;;;;;;17.98;9.15;;;;;;;11.73;65.01;101793.44;5012437;28;20065;-66
2021/10/05 06:51:05;;;;;;;19.17;8.93;;;;;;;11.79;64.89;101802.09;5026439;28;20041;-66
2021/10/05 06:53:31;;;;;;;15.95;8.93;;;;;;;11.87;64.59;101802.94;5016099;28;20042;-48
2021/10/05 06:55:56;;;;;;;21.80;9.63;;;;;;;11.91;64.44;101802.91;5023253;28;20501;-48
2021/10/05 06:58:22;;;;;;;17.67;8.63;;;;;;;11.86;64.64;101805.53;5030894;28;20041;-50
2021/10/05 07:00:48;;;;;;;16.73;8.93;;;;;;;11.87;64.68;101808.16;5027595;28;20041;-48
2021/10/05 07:03:13;;;;;;;22.70;9.10;;;;;;;11.96;64.58;101808.94;5030388;28;20038;-49
2021/10/05 07:05:39;;;;;;;18.52;9.68;;;;;;;12.05;64.06;101799.31;5011230;28;20037;-49
2021/10/05 07:08:09;;;;;;;16.45;8.93;;;;;;;12.11;64.04;101804.50;5028083;28;20046;-52
2021/10/05 07:10:35;;;;;;;22.50;8.23;;;;;;;12.08;63.85;101798.47;4995107;28;20041;-50
2021/10/05 07:13:02;;;;;;;17.30;9.50;;;;;;;12.13;63.77;101802.75;5024824;28;20092;-51
2021/10/05 07:15:28;;;;;;;15.10;8.85;;;;;;;12.20;63.86;101811.38;5032152;28;20153;-51
2021/10/05 07:17:54;;;;;;;15.55;8.48;;;;;;;12.32;63.75;101806.09;5026532;28;20050;-51
2021/10/05 07:20:20;;;;;;;18.05;8.75;;;;;;;12.42;63.47;101809.50;5016895;28;20049;-53
2021/10/05 07:22:46;;;;;;;19.88;10.60;;;;;;;12.47;63.48;101805.97;5032023;28;20137;-51
2021/10/05 07:25:12;;;;;;;19.30;10.20;;;;;;;12.42;63.42;101812.97;5030542;28;20412;-51
2021/10/05 07:27:38;;;;;;;18.88;9.85;;;;;;;12.45;63.22;101819.91;5030563;28;20041;-46
2021/10/05 07:30:05;;;;;;;16.75;10.80;;;;;;;12.54;62.95;101822.44;5028947;28;20517;-48
2021/10/05 07:32:31;;;;;;;17.98;10.82;;;;;;;12.42;62.78;101812.97;5020613;28;20370;-50
2021/10/05 07:34:57;;;;;;;20.05;10.30;;;;;;;12.51;62.33;101809.44;5010618;28;20049;-51
2021/10/05 07:37:22;;;;;;;18.80;11.43;;;;;;;12.62;62.44;101815.41;5027156;28;20038;-47
2021/10/05 07:39:48;;;;;;;37.17;11.70;;;;;;;12.61;62.25;101809.31;5009756;28;20522;-49
2021/10/05 07:42:14;;;;;;;17.90;10.30;;;;;;;12.75;62.04;101824.88;5026972;28;20043;-50
2021/10/05 07:44:40;;;;;;;21.13;9.55;;;;;;;12.77;61.69;101801.38;5030258;28;20079;-49
2021/10/05 07:47:06;;;;;;;16.17;10.15;;;;;;;12.93;61.00;101795.09;5031758;28;20053;-50
2021/10/05 07:49:33;;;;;;;18.77;9.68;;;;;;;13.35;60.47;101812.06;5031699;28;20041;-53
2021/10/05 07:52:02;;;;;;;15.38;9.75;;;;;;;13.70;59.45;101822.97;5033280;28;20042;-49
2021/10/05 07:54:28;;;;;;;;;;;;;;;14.45;57.44;101822.75;5014032;28;20150;-49
2021/10/05 07:56:53;;;;;;;19.10;9.23;;;;;;;14.70;56.57;101823.25;5031713;28;20019;-50
2021/10/05 07:59:19;;;;;;;17.23;8.95;;;;;;;14.49;56.86;101805.28;5027780;28;20216;-52
2021/10/05 08:01:50;;;;;;;20.05;9.27;;;;;;;14.47;56.59;101817.53;5029977;28;20037;-51
2021/10/05 08:04:16;;;;;;;16.00;8.40;;;;;;;14.47;56.14;101802.69;5046169;28;20567;-49
2021/10/05 08:06:42;;;;;;;14.63;9.20;;;;;;;14.46;56.25;101821.88;5011713;28;20088;-50
2021/10/05 08:09:08;;;;;;;14.25;9.30;;;;;;;14.39;56.14;101810.63;5027120;28;20069;-48
2021/10/05 08:11:34;;;;;;;20.42;10.25;;;;;;;14.34;55.68;101822.06;5011610;28;20046;-49
2021/10/05 08:14:00;;;;;;;18.08;9.40;;;;;;;14.46;55.58;101815.78;5010072;28;20041;-48
2021/10/05 08:16:30;;;;;;;21.33;10.77;;;;;;;14.80;54.67;101798.63;5011345;28;20042;-49
2021/10/05 08:18:59;;;;;;;16.73;9.68;;;;;;;15.19;54.39;101812.72;5029459;28;20037;-51
2021/10/05 08:21:26;;;;;;;22.10;10.82;;;;;;;15.08;54.19;101804.19;5031095;28;20037;-49
2021/10/05 08:23:52;;;;;;;21.55;12.05;;;;;;;15.11;54.35;101815.50;5029734;28;20131;-48
2021/10/05 08:26:19;;;;;;;24.15;10.68;;;;;;;15.25;53.81;101821.34;5029144;28;20049;-49
2021/10/05 08:28:45;;;;;;;18.40;10.45;;;;;;;15.17;53.58;101822.38;5009893;28;20072;-49
2021/10/05 08:31:11;;;;;;;15.15;9.60;;;;;;;15.21;53.33;101821.44;5026272;28;20040;-50
2021/10/05 08:33:37;;;;;;;13.35;9.10;;;;;;;15.28;53.10;101818.63;5009589;28;20033;-51
2021/10/05 08:36:03;;;;;;;21.50;9.57;;;;;;;15.14;53.08;101817.19;5009134;28;20077;-51
2021/10/05 08:38:29;;;;;;;13.68;8.30;;;;;;;15.24;52.93;101821.34;5009490;28;20037;-48
2021/10/05 08:40:55;;;;;;;17.27;9.02;;;;;;;15.40;52.84;101814.91;5013008;28;20140;-50
2021/10/05 08:43:22;;;;;;;13.43;8.13;;;;;;;15.56;52.33;101824.22;5030393;28;20133;-49
2021/10/05 08:45:48;;;;;;;17.58;9.60;;;;;;;15.41;52.29;101823.66;5029592;28;20121;-49
2021/10/05 08:48:13;;;;;;;13.40;8.13;;;;;;;15.32;52.61;101818.59;5045844;28;20068;-48
2021/10/05 08:50:40;;;;;;;12.73;8.60;;;;;;;15.08;52.51;101807.69;5016878;28;20041;-48
2021/10/05 08:53:06;;;;;;;17.48;8.48;;;;;;;14.99;52.93;101813.09;5010899;28;20045;-51
2021/10/05 08:55:33;;;;;;;19.75;8.40;;;;;;;15.39;52.50;101820.19;5025438;28;20049;-50
2021/10/05 08:57:59;;;;;;;12.38;8.18;;;;;;;15.70;51.89;101825.72;5010851;28;20056;-50
2021/10/05 09:00:30;;;;;;;11.40;7.38;;;;;;;15.93;51.65;101810.31;5010841;28;20100;-54
2021/10/05 09:02:56;;;;;;;11.32;7.07;;;;;;;16.19;50.93;101821.09;5026057;28;20069;-53
2021/10/05 09:05:22;;;;;;;13.98;6.90;;;;;;;16.24;50.52;101819.22;5009670;28;20041;-50
2021/10/05 09:07:50;;;;;;;10.85;6.22;;;;;;;16.37;49.92;101811.94;5010730;28;20038;-50
2021/10/05 09:10:20;;;;;;;15.48;6.88;;;;;;;16.47;49.58;101814.28;5009158;28;20394;-49
2021/10/05 09:12:46;;;;;;;12.48;7.47;;;;;;;16.45;49.54;101817.84;5022158;28;20067;-49
2021/10/05 09:15:15;;;;;;;17.98;7.38;;;;;;;16.26;49.62;101813.94;5030281;28;20169;-49
2021/10/05 09:17:41;;;;;;;16.52;7.68;;;;;;;15.91;50.49;101815.59;5045605;28;20058;-50
2021/10/05 09:20:36;;;;;;;16.73;7.68;;;;;;;15.60;51.23;101820.66;5037079;28;20042;-52
2021/10/05 09:23:13;;;;;;;16.42;7.32;;;;;;;15.40;51.69;101819.28;5014116;28;20120;-52
2021/10/05 09:25:50;;;;;;;14.85;7.00;;;;;;;15.13;51.95;101818.94;5010448;28;20040;-51
2021/10/05 09:28:29;;;;;;;9.02;6.70;;;;;;;14.90;52.59;101821.13;5010334;28;20678;-53
2021/10/05 09:30:57;;;;;;;13.05;7.50;;;;;;;14.82;52.77;101823.00;5021345;28;20175;-49
2021/10/05 09:33:22;;;;;;;17.02;7.43;;;;;;;14.80;52.78;101820.44;5030004;28;20485;-55
2021/10/05 09:35:48;;;;;;;12.48;6.65;;;;;;;14.93;52.60;101826.31;5030056;28;20128;-51
2021/10/05 09:38:17;;;;;;;13.43;7.78;;;;;;;14.72;52.90;101819.69;5030476;28;20512;-51
2021/10/05 09:40:44;;;;;;;15.50;6.72;;;;;;;14.55;53.25;101824.34;5029176;28;20096;-51
2021/10/05 09:43:27;;;;;;;12.55;6.65;;;;;;;14.55;53.65;101820.91;5016396;28;20509;-50
2021/10/05 09:45:55;;;;;;;14.35;6.80;;;;;;;14.72;53.19;101826.69;5010166;28;20052;-49
2021/10/05 09:48:22;;;;;;;13.20;6.47;;;;;;;14.77;52.78;101820.47;5008729;28;20115;-53
2021/10/05 09:50:48;;;;;;;14.48;6.60;;;;;;;15.02;52.68;101823.50;5010417;28;20529;-48
2021/10/05 09:53:19;;;;;;;11.68;6.30;;;;;;;15.23;51.75;101814.38;5010197;28;20089;-49
2021/10/05 09:55:46;;;;;;;8.00;5.53;;;;;;;15.35;51.53;101814.16;5027929;28;20044;-52
2021/10/05 09:58:15;;;;;;;11.75;5.80;;;;;;;15.47;51.29;101818.28;5029959;28;20532;-56
2021/10/05 10:00:44;;;;;;;8.43;5.45;;;;;;;15.61;51.06;101821.50;5026240;28;20049;-48
2021/10/05 10:03:11;;;;;;;9.00;5.80;;;;;;;15.42;50.77;101805.28;5029400;28;20037;-51
2021/10/05 10:05:40;;;;;;;8.82;5.22;;;;;;;15.51;50.58;101815.59;5029049;28;20037;-49
2021/10/05 10:08:07;;;;;;;11.88;5.80;;;;;;;15.51;50.91;101828.72;5029862;28;20033;-51
2021/10/05 10:10:35;;;;;;;12.98;6.05;;;;;;;15.53;51.05;101831.31;5029219;28;20540;-54
2021/10/05 10:13:04;;;;;;;8.50;5.60;;;;;;;15.35;50.83;101839.50;5028279;28;20115;-48
2021/10/05 10:15:32;;;;;;;13.07;5.82;;;;;;;15.36;50.97;101828.13;5028342;28;20424;-53
2021/10/05 10:18:19;;;;;;;12.23;5.72;;;;;;;15.43;50.95;101835.84;5014809;28;20045;-49
2021/10/05 10:20:53;;;;;;;11.52;5.88;;;;;;;15.48;50.42;101830.50;5009857;28;20151;-53
2021/10/05 10:23:21;;;;;;;17.83;7.57;;;;;;;15.51;50.36;101828.72;5009723;28;20041;-51
2021/10/05 10:26:17;;;;;;;13.65;5.70;;;;;;;15.62;50.33;101831.13;5024825;28;20049;-53
2021/10/05 10:28:44;;;;;;;11.05;5.68;;;;;;;15.61;50.60;101832.00;5008855;28;20512;-50
2021/10/05 10:31:28;;;;;;;11.80;5.70;;;;;;;15.42;51.05;101830.63;5008484;28;20088;-48
2021/10/05 10:33:55;;;;;;;10.30;4.82;;;;;;;15.31;51.00;101828.22;5009466;28;20042;-52
2021/10/05 10:36:39;;;;;;;8.20;5.40;;;;;;;15.16;51.69;101828.50;5008490;28;20045;-49
2021/10/05 10:39:15;;;;;;;10.80;5.70;;;;;;;14.99;51.67;101833.19;5012414;28;20147;-51
2021/10/05 10:41:46;;;;;;;8.68;5.20;;;;;;;14.70;52.34;101829.34;5044619;28;20068;-50
2021/10/05 10:44:14;;;;;;;8.88;5.40;;;;;;;14.24;53.12;101821.31;5028565;28;20056;-48
2021/10/05 10:46:41;;;;;;;11.30;5.63;;;;;;;14.23;53.43;101824.84;5028287;28;20132;-48
2021/10/05 10:49:16;;;;;;;9.48;5.55;;;;;;;14.27;53.71;101821.28;5027203;28;20567;-48
2021/10/05 10:51:43;;;;;;;10.40;5.43;;;;;;;14.37;53.55;101835.13;5021987;28;20037;-50
2021/10/05 10:54:21;;;;;;;7.28;4.97;;;;;;;14.24;53.12;101823.06;5007954;28;20042;-48
2021/10/05 10:57:08;;;;;;;9.48;4.70;;;;;;;14.05;53.45;101812.03;5009081;28;20100;-47
2021/10/05 10:59:34;;;;;;;8.90;5.10;;;;;;;13.89;53.73;101819.22;5012615;28;20517;-47
2021/10/05 11:02:05;;;;;;;8.40;5.40;;;;;;;13.80;53.93;101819.34;5028532;28;20079;-51
2021/10/05 11:04:32;;;;;;;11.57;5.40;;;;;;;13.67;54.71;101827.38;5027725;28;20041;-51
2021/10/05 11:06:58;;;;;;;10.13;5.15;;;;;;;13.56;54.73;101802.22;5028449;28;20045;-48
2021/10/05 11:09:31;;;;;;;7.38;5.00;;;;;;;13.62;54.72;101824.81;5028304;28;20050;-46
2021/10/05 11:11:57;;;;;;;9.55;5.20;;;;;;;13.69;54.67;101826.47;5027007;28;20037;-49
2021/10/05 11:14:28;;;;;;;12.32;5.72;;;;;;;13.78;54.60;101820.25;5030388;28;20144;-52
2021/10/05 11:16:59;;;;;;;11.85;5.38;;;;;;;13.86;54.53;101823.66;5045422;28;20128;-49
2021/10/05 11:19:33;;;;;;;8.45;5.47;;;;;;;13.92;54.32;101821.78;5030582;28;20037;-49